Time;durP1;ratioP1;P1;durP2;ratioP2;P2;SDS_P1;SDS_P2;PMS_P1;PMS_P2;Temp;Humidity;BMP_temperature;BMP_pressure;BME280_temperature;BME280_humidity;BME280_pressure;Samples;Min_cycle;Max_cycle;Signal;HPM_P1;HPM_P2
2023/08/05 00:01:00;;;;;;;16.17;12.87;;;14.90;99.90;;;14.65;100.00;97753.44;4934804;29;21053;-72
2023/08/05 00:03:27;;;;;;;15.63;11.00;;;14.90;99.90;;;14.71;100.00;97755.19;4944881;29;20454;-71
2023/08/05 00:05:56;;;;;;;17.93;11.63;;;15.00;99.90;;;14.51;100.00;97746.69;4942823;28;20538;-72
2023/08/05 00:08:23;;;;;;;17.03;11.63;;;14.90;99.90;;;14.55;100.00;97742.38;4954204;28;20968;-72
2023/08/05 00:10:51;;;;;;;15.80;11.80;;;14.90;99.90;;;14.54;100.00;97746.19;4948721;28;20478;-71
2023/08/05 00:13:18;;;;;;;18.47;11.30;;;14.90;99.90;;;14.81;100.00;97729.22;4952117;28;20534;-72
2023/08/05 00:15:45;;;;;;;15.80;11.83;;;14.90;99.90;;;14.77;100.00;97725.31;4933244;28;20454;-72
2023/08/05 00:18:14;;;;;;;14.13;10.77;;;15.00;99.90;;;14.72;100.00;97732.34;4940077;29;20475;-71
2023/08/05 00:20:41;;;;;;;13.30;10.70;;;14.90;99.90;;;14.69;100.00;97731.97;4940309;29;20479;-73
2023/08/05 00:23:10;;;;;;;15.93;12.30;;;14.90;99.90;;;15.06;100.00;97725.19;4936998;28;20459;-71
2023/08/05 00:25:37;;;;;;;15.13;12.40;;;15.00;99.90;;;14.84;100.00;97715.91;4944630;29;20525;-72
2023/08/05 00:28:04;;;;;;;13.80;10.70;;;14.90;99.90;;;14.91;100.00;97731.25;4941641;29;20462;-71
2023/08/05 00:30:32;;;;;;;14.80;11.87;;;14.90;99.90;;;14.88;100.00;97713.53;4955565;28;20534;-72
2023/08/05 00:32:59;;;;;;;17.73;12.40;;;14.90;99.90;;;14.94;100.00;97711.69;4944359;28;20469;-72
2023/08/05 00:35:26;;;;;;;18.17;11.93;;;14.90;99.90;;;14.98;100.00;97707.41;4942667;29;20533;-71
2023/08/05 00:37:53;;;;;;;16.63;11.90;;;14.90;99.90;;;14.58;100.00;97650.28;4946568;28;20465;-72
2023/08/05 00:40:22;;;;;;;19.60;12.67;;;15.00;99.90;;;15.11;100.00;97726.06;4946902;28;20970;-72
2023/08/05 00:42:49;;;;;;;20.03;13.63;;;15.00;99.90;;;14.83;100.00;97721.63;4956846;28;20458;-73
2023/08/05 00:45:16;;;;;;;14.90;12.00;;;14.90;99.90;;;14.87;100.00;97706.44;4948452;28;20993;-73
2023/08/05 00:47:43;;;;;;;18.13;13.60;;;14.90;99.90;;;14.79;100.00;97707.69;4944155;29;20513;-71
2023/08/05 00:50:13;;;;;;;15.10;11.90;;;14.90;99.90;;;14.99;100.00;97699.00;4945891;29;20477;-72
2023/08/05 00:52:43;;;;;;;21.17;13.70;;;14.90;99.90;;;15.02;100.00;97703.94;4941220;29;20457;-71
2023/08/05 00:55:10;;;;;;;17.57;11.93;;;14.90;99.90;;;15.04;100.00;97700.97;4949020;29;20460;-72
2023/08/05 00:57:39;;;;;;;15.60;12.50;;;14.90;99.90;;;14.62;100.00;97617.97;4941132;29;20458;-73
2023/08/05 01:00:08;;;;;;;19.23;11.90;;;15.00;99.90;;;15.12;100.00;97716.03;4938650;29;20467;-71
2023/08/05 01:02:36;;;;;;;17.57;12.13;;;15.00;99.90;;;15.27;100.00;97727.09;4939181;29;20463;-72
2023/08/05 01:05:03;;;;;;;14.83;12.67;;;15.00;99.90;;;15.00;100.00;97722.41;4951213;28;20745;-72
2023/08/05 01:07:32;;;;;;;14.47;11.03;;;15.00;99.90;;;15.04;100.00;97733.63;4941278;29;20446;-72
2023/08/05 01:10:00;;;;;;;15.37;11.40;;;14.90;99.90;;;15.04;100.00;97724.63;4942471;28;20473;-71
2023/08/05 01:12:29;;;;;;;12.83;11.33;;;15.00;99.90;;;14.98;100.00;97712.84;4958319;28;20848;-71
2023/08/05 01:14:57;;;;;;;15.80;11.47;;;15.00;99.90;;;14.93;100.00;97724.47;4946413;29;20466;-72
2023/08/05 01:17:24;;;;;;;14.63;10.63;;;14.90;99.90;;;14.95;100.00;97714.19;4944334;28;20463;-71
2023/08/05 01:19:52;;;;;;;17.40;11.90;;;14.90;99.90;;;15.01;100.00;97718.59;4939208;28;20461;-72
2023/08/05 01:22:26;;;;;;;16.63;11.83;;;14.90;99.90;;;14.92;100.00;97711.94;4945081;29;20462;-72
2023/08/05 01:25:02;;;;;;;12.83;11.47;;;14.90;99.90;;;14.93;100.00;97705.44;4945386;28;20480;-71
2023/08/05 01:27:32;;;;;;;14.90;10.73;;;14.90;99.90;;;14.98;100.00;97713.69;4942070;29;20537;-71
2023/08/05 01:30:00;;;;;;;14.40;11.13;;;14.90;99.90;;;14.93;100.00;97719.03;4933689;29;20482;-72
2023/08/05 01:32:29;;;;;;;13.67;10.60;;;14.80;99.90;;;14.95;100.00;97707.91;4943184;28;20871;-71
2023/08/05 01:34:56;;;;;;;13.67;10.90;;;14.90;99.90;;;15.23;100.00;97720.50;4940834;29;20486;-72
2023/08/05 01:37:23;;;;;;;13.67;9.97;;;15.00;99.90;;;14.98;100.00;97730.00;4942693;29;20473;-70
2023/08/05 01:39:50;;;;;;;10.50;9.40;;;14.90;99.90;;;14.83;100.00;97718.91;4949240;28;20463;-71
2023/08/05 01:42:17;;;;;;;10.60;8.73;;;14.80;99.90;;;14.90;100.00;97710.56;4950459;28;20469;-72
2023/08/05 01:44:46;;;;;;;11.30;9.87;;;14.90;99.90;;;14.66;100.00;97708.84;4941244;28;20474;-71
2023/08/05 01:47:13;;;;;;;9.93;8.93;;;14.80;99.90;;;14.68;100.00;97703.16;4946813;28;20463;-72
2023/08/05 01:49:41;;;;;;;10.47;9.10;;;14.70;99.90;;;14.59;100.00;97703.59;4947456;29;20521;-72
2023/08/05 01:52:08;;;;;;;10.47;8.70;;;14.70;99.90;;;14.71;100.00;97705.38;4941629;28;21221;-71
2023/08/05 01:54:35;;;;;;;16.50;9.73;;;14.70;99.90;;;14.59;100.00;97695.44;4943037;29;20923;-72
2023/08/05 01:57:02;;;;;;;14.07;9.53;;;14.70;99.90;;;14.56;100.00;97698.66;4943192;29;20443;-73
2023/08/05 01:59:30;;;;;;;16.17;9.67;;;14.60;99.90;;;14.52;100.00;97688.53;4946031;28;20485;-72
2023/08/05 02:01:58;;;;;;;10.80;9.70;;;14.60;99.90;;;14.52;100.00;97673.03;4934493;29;20446;-71
2023/08/05 02:04:26;;;;;;;17.50;9.70;;;14.60;99.90;;;14.59;100.00;97675.56;4937703;28;20963;-72
2023/08/05 02:06:53;;;;;;;14.53;9.73;;;14.60;99.90;;;14.42;100.00;97689.19;4943470;29;20466;-72
2023/08/05 02:09:20;;;;;;;13.10;10.17;;;14.60;99.90;;;14.56;100.00;97673.34;4934561;29;20453;-72
2023/08/05 02:11:47;;;;;;;13.70;10.03;;;14.60;99.90;;;14.63;100.00;97673.97;4937118;28;20480;-72
2023/08/05 02:14:15;;;;;;;14.47;11.17;;;14.60;99.90;;;14.63;100.00;97679.44;4938008;28;20450;-72
2023/08/05 02:16:42;;;;;;;13.20;9.67;;;14.60;99.90;;;14.71;100.00;97670.88;4941409;28;21045;-72
2023/08/05 02:19:11;;;;;;;12.60;9.60;;;14.60;99.90;;;14.68;100.00;97660.47;4939675;29;20459;-73
2023/08/05 02:21:38;;;;;;;11.30;9.30;;;14.60;99.90;;;14.56;100.00;97662.47;4940883;29;20469;-71
2023/08/05 02:24:09;;;;;;;14.90;11.20;;;14.60;99.90;;;14.57;100.00;97664.13;4951768;28;20525;-73
2023/08/05 02:26:36;;;;;;;11.93;9.90;;;14.60;99.90;;;14.59;100.00;97651.09;4937005;29;20541;-73
2023/08/05 02:29:03;;;;;;;13.80;10.17;;;14.60;99.90;;;14.71;100.00;97653.72;4945058;28;20453;-71
2023/08/05 02:31:31;;;;;;;12.93;10.03;;;14.60;99.90;;;14.52;100.00;97653.19;4955626;28;20793;-72
2023/08/05 02:33:58;;;;;;;12.80;10.20;;;14.60;99.90;;;14.51;100.00;97654.25;4940747;29;20509;-72
2023/08/05 02:36:26;;;;;;;11.13;9.93;;;14.60;99.90;;;14.62;100.00;97642.44;4938948;28;20514;-73
2023/08/05 02:38:54;;;;;;;13.43;10.10;;;14.60;99.90;;;14.61;100.00;97643.50;4940659;28;20457;-73
2023/08/05 02:41:21;;;;;;;13.20;10.43;;;14.60;99.90;;;14.58;100.00;97655.72;4935656;28;20457;-72
2023/08/05 02:43:48;;;;;;;13.93;9.90;;;14.60;99.90;;;14.41;100.00;97647.59;4946023;29;20476;-72
2023/08/05 02:46:15;;;;;;;12.00;9.67;;;14.50;99.90;;;14.54;100.00;97649.13;4941713;29;20461;-72
2023/08/05 02:48:43;;;;;;;14.03;10.20;;;14.60;99.90;;;14.54;100.00;97649.13;4936434;29;20477;-72
2023/08/05 02:51:10;;;;;;;13.37;10.93;;;14.60;99.90;;;14.52;100.00;97656.72;4935559;29;20481;-71
2023/08/05 02:53:39;;;;;;;13.63;10.43;;;14.60;99.90;;;14.53;100.00;97652.13;4947594;28;20537;-73
2023/08/05 02:56:08;;;;;;;10.90;9.80;;;14.60;99.90;;;14.56;100.00;97657.03;4941655;29;20462;-72
2023/08/05 02:58:36;;;;;;;11.83;10.03;;;14.60;99.90;;;14.53;100.00;97652.13;4945563;28;20904;-72
2023/08/05 03:01:07;;;;;;;12.60;10.77;;;14.50;99.90;;;14.62;100.00;97656.03;4939168;29;20461;-73
2023/08/05 03:03:34;;;;;;;14.40;10.47;;;14.60;99.90;;;14.60;100.00;97650.03;4940020;29;20476;-72
2023/08/05 03:06:01;;;;;;;11.43;10.07;;;14.60;99.90;;;14.56;100.00;97646.16;4965279;28;20547;-72
2023/08/05 03:08:28;;;;;;;10.93;9.70;;;14.60;99.90;;;14.53;100.00;97627.66;4951901;28;20457;-72
2023/08/05 03:11:02;;;;;;;10.87;9.33;;;14.60;99.90;;;14.20;100.00;97648.38;4938998;29;20485;-72
2023/08/05 03:13:29;;;;;;;12.03;10.07;;;14.50;99.90;;;14.24;100.00;97666.63;4939183;29;20514;-72
2023/08/05 03:15:56;;;;;;;11.90;9.80;;;14.60;99.90;;;14.21;100.00;97667.13;4939233;29;20484;-72
2023/08/05 03:18:24;;;;;;;11.40;9.80;;;14.60;99.90;;;14.24;100.00;97665.81;4935929;29;20513;-73
2023/08/05 03:20:51;;;;;;;11.43;10.23;;;14.60;99.90;;;14.29;100.00;97671.31;4929564;29;20460;-72
2023/08/05 03:23:18;;;;;;;13.00;10.37;;;14.60;99.90;;;14.41;100.00;97685.66;4939485;28;20479;-71
2023/08/05 03:25:45;;;;;;;10.57;9.23;;;14.60;99.90;;;14.41;100.00;97685.66;4950417;28;20450;-72
2023/08/05 03:28:14;;;;;;;10.77;9.67;;;14.70;99.90;;;14.30;100.00;97700.97;4942778;29;20462;-72
2023/08/05 03:30:41;;;;;;;13.50;10.27;;;14.70;99.90;;;14.32;100.00;97700.72;4938298;29;20485;-72
2023/08/05 03:33:09;;;;;;;13.07;11.37;;;14.70;99.90;;;14.25;100.00;97711.75;4946247;28;20547;-71
2023/08/05 03:35:36;;;;;;;10.00;9.00;;;14.60;99.90;;;14.48;100.00;97739.84;4940549;29;20459;-72
2023/08/05 03:38:05;;;;;;;11.97;9.60;;;14.70;99.90;;;14.53;100.00;97744.53;4937273;29;21023;-70
2023/08/05 03:40:33;;;;;;;10.97;9.40;;;14.80;99.90;;;14.35;100.00;97738.28;4938576;29;20460;-71
2023/08/05 03:43:00;;;;;;;10.53;9.47;;;14.70;99.90;;;14.64;100.00;97740.91;4936032;29;20565;-73
2023/08/05 03:45:29;;;;;;;11.00;9.00;;;14.70;99.90;;;14.74;100.00;97740.25;4931832;29;20816;-72
2023/08/05 03:47:57;;;;;;;11.03;9.33;;;14.80;99.90;;;14.70;100.00;97734.47;4937078;29;20458;-72
2023/08/05 03:50:28;;;;;;;10.77;9.60;;;14.70;99.90;;;14.82;100.00;97723.50;4935470;29;20454;-72
2023/08/05 03:52:57;;;;;;;9.93;8.13;;;14.80;99.90;;;14.93;100.00;97720.94;4951975;28;20462;-72
2023/08/05 03:55:24;;;;;;;10.13;9.10;;;14.80;99.90;;;14.94;100.00;97728.03;4939126;29;20493;-71
2023/08/05 03:57:52;;;;;;;10.17;8.60;;;14.80;99.90;;;14.71;100.00;97719.81;4937947;29;20473;-72
2023/08/05 04:00:19;;;;;;;9.57;8.57;;;14.70;99.90;;;14.68;100.00;97724.91;4938804;29;20476;-72
2023/08/05 04:02:48;;;;;;;9.57;8.50;;;14.60;99.90;;;14.60;100.00;97734.31;4936933;29;20462;-72
2023/08/05 04:05:15;;;;;;;10.10;8.57;;;14.50;99.90;;;14.64;100.00;97723.75;4959283;28;21199;-72
2023/08/05 04:07:42;;;;;;;10.23;9.10;;;14.50;99.90;;;14.65;100.00;97733.56;4931701;29;21208;-73
2023/08/05 04:10:12;;;;;;;9.23;8.30;;;14.50;99.90;;;14.58;100.00;97731.84;4941464;28;21211;-72
2023/08/05 04:12:41;;;;;;;10.53;9.33;;;14.50;99.90;;;14.57;100.00;97730.22;4936266;29;20479;-71
2023/08/05 04:15:11;;;;;;;11.33;10.13;;;14.40;99.90;;;14.62;100.00;97732.16;4937846;29;20553;-72
2023/08/05 04:17:38;;;;;;;12.43;9.90;;;14.40;99.90;;;14.41;100.00;97736.47;4942849;29;20611;-72
2023/08/05 04:20:09;;;;;;;13.30;10.00;;;14.40;99.90;;;14.39;100.00;97731.28;4937815;29;20951;-73
2023/08/05 04:22:38;;;;;;;11.73;10.57;;;14.40;99.90;;;14.16;100.00;97722.19;4945033;28;20453;-72
2023/08/05 04:25:06;;;;;;;10.83;9.73;;;14.40;99.90;;;14.26;100.00;97718.00;4941769;29;20462;-72
2023/08/05 04:27:33;;;;;;;12.80;10.90;;;14.40;99.90;;;14.42;100.00;97717.19;4941414;29;20950;-70
2023/08/05 04:30:02;;;;;;;12.60;10.33;;;14.40;99.90;;;14.54;100.00;97710.84;4947659;29;20488;-71
2023/08/05 04:32:29;;;;;;;14.10;10.57;;;14.50;99.90;;;14.44;100.00;97715.03;4941567;28;21047;-72
2023/08/05 04:34:56;;;;;;;11.00;9.17;;;14.50;99.90;;;14.36;100.00;97704.59;4943581;28;20467;-71
2023/08/05 04:37:26;;;;;;;12.20;10.90;;;14.60;99.90;;;14.17;100.00;97699.41;4963561;28;20474;-72
2023/08/05 04:39:53;;;;;;;12.93;10.43;;;14.50;99.90;;;14.14;100.00;97699.88;4945622;29;20830;-72
2023/08/05 04:42:21;;;;;;;12.77;10.17;;;14.50;99.90;;;14.35;100.00;97692.09;4941027;29;20497;-71
2023/08/05 04:44:48;;;;;;;13.50;10.47;;;14.60;99.90;;;14.48;100.00;97690.06;4940651;29;20493;-70
2023/08/05 04:47:15;;;;;;;14.50;10.77;;;14.60;99.90;;;14.54;100.00;97678.22;4943696;29;20556;-73
2023/08/05 04:49:44;;;;;;;10.80;8.97;;;14.60;99.90;;;14.77;100.00;97685.38;4939762;28;20453;-72
2023/08/05 04:52:13;;;;;;;12.30;10.57;;;14.70;99.90;;;14.41;100.00;97672.06;4943008;29;20479;-71
2023/08/05 04:54:43;;;;;;;13.13;10.87;;;14.70;99.90;;;14.55;100.00;97698.91;4941358;29;20465;-71
2023/08/05 04:57:11;;;;;;;10.83;9.80;;;14.80;99.90;;;14.77;100.00;97706.28;4945151;29;20444;-70
2023/08/05 04:59:38;;;;;;;13.00;10.83;;;14.90;99.90;;;14.64;100.00;97697.41;4948046;29;21186;-71
2023/08/05 05:02:06;;;;;;;10.53;9.43;;;15.00;99.90;;;14.66;100.00;97711.56;4942417;29;20470;-71
2023/08/05 05:04:34;;;;;;;10.63;9.53;;;15.00;99.90;;;14.65;100.00;97715.38;4939097;29;20510;-69
2023/08/05 05:07:01;;;;;;;14.50;9.90;;;15.00;99.90;;;14.81;100.00;97712.91;4951779;28;20461;-71
2023/08/05 05:09:28;;;;;;;10.23;9.07;;;15.10;99.90;;;14.63;100.00;97712.03;4942357;29;20464;-70
2023/08/05 05:12:00;;;;;;;11.77;9.53;;;15.00;99.90;;;14.59;100.00;97728.06;4941397;29;20485;-71
2023/08/05 05:14:27;;;;;;;10.10;9.13;;;15.00;99.90;;;14.66;100.00;97729.75;4950369;28;20528;-71
2023/08/05 05:16:55;;;;;;;11.23;9.70;;;15.00;99.90;;;14.73;100.00;97734.00;4935176;28;20454;-71
2023/08/05 05:19:23;;;;;;;11.13;10.03;;;15.00;99.90;;;14.81;100.00;97730.03;4935111;28;20458;-72
2023/08/05 05:21:50;;;;;;;9.80;8.63;;;15.10;99.90;;;14.89;100.00;97731.50;4954589;28;20464;-72
2023/08/05 05:24:17;;;;;;;10.40;8.70;;;15.20;99.90;;;15.11;100.00;97728.78;4955464;28;20459;-70
2023/08/05 05:26:44;;;;;;;9.10;8.30;;;15.30;99.90;;;15.08;100.00;97721.16;4955336;28;20462;-72
2023/08/05 05:29:12;;;;;;;9.90;8.90;;;15.30;99.90;;;15.36;100.00;97718.47;4940639;29;20489;-71
2023/08/05 05:31:40;;;;;;;9.03;8.23;;;15.50;99.90;;;15.20;100.00;97720.22;4939239;29;20486;-71
2023/08/05 05:34:07;;;;;;;8.27;7.47;;;15.50;99.90;;;15.32;100.00;97723.63;4929401;29;20823;-71
2023/08/05 05:36:34;;;;;;;9.00;8.10;;;15.60;99.90;;;14.99;100.00;97726.19;4943366;29;20469;-71
2023/08/05 05:39:01;;;;;;;10.20;7.70;;;15.40;99.90;;;15.27;100.00;97713.50;4941595;28;20466;-72
2023/08/05 05:41:28;;;;;;;8.23;7.20;;;15.40;99.90;;;15.04;100.00;97705.56;4938886;29;20463;-71
2023/08/05 05:43:58;;;;;;;8.33;7.57;;;15.40;99.90;;;15.13;100.00;97698.63;4937833;29;20478;-72
2023/08/05 05:46:27;;;;;;;9.40;8.40;;;15.40;99.90;;;15.43;100.00;97702.78;4939197;29;20481;-73
2023/08/05 05:48:56;;;;;;;10.87;7.30;;;15.60;99.90;;;15.40;100.00;97692.41;4940992;29;20563;-73
2023/08/05 05:51:23;;;;;;;8.17;7.37;;;15.70;99.90;;;15.55;100.00;97694.47;4942052;29;20481;-71
2023/08/05 05:53:51;;;;;;;8.63;7.23;;;15.80;99.90;;;15.64;100.00;97703.00;4942049;29;21007;-71
2023/08/05 05:56:19;;;;;;;7.63;6.93;;;15.90;99.90;;;15.92;97.98;97701.97;4946960;29;20461;-72
2023/08/05 05:58:46;;;;;;;10.13;7.30;;;16.10;99.90;;;15.75;96.83;97712.09;4960963;28;20499;-72
2023/08/05 06:01:13;;;;;;;7.10;6.50;;;16.10;99.90;;;16.08;96.98;97697.47;4951023;29;20475;-71
2023/08/05 06:03:42;;;;;;;8.83;6.90;;;16.20;99.90;;;15.89;94.42;97639.81;4947774;29;20469;-73
2023/08/05 06:06:10;;;;;;;6.90;6.20;;;16.40;99.90;;;16.33;92.94;97682.41;4948355;29;20451;-79
2023/08/05 06:08:37;;;;;;;7.33;6.67;;;16.50;99.70;;;16.46;91.23;97691.22;4963522;28;20447;-78
2023/08/05 06:11:04;;;;;;;6.63;5.90;;;16.60;97.80;;;16.57;90.78;97680.13;4979107;28;20454;-78
2023/08/05 06:13:32;;;;;;;6.47;5.97;;;16.80;97.40;;;16.17;90.33;97602.44;4953965;28;20510;-82
2023/08/05 06:15:59;;;;;;;6.53;5.93;;;16.90;97.60;;;16.73;88.55;97672.03;4962021;28;20475;-79
2023/08/05 06:18:26;;;;;;;6.30;5.80;;;17.00;95.80;;;16.97;88.61;97686.06;4952591;28;20927;-79
2023/08/05 06:20:55;;;;;;;5.93;5.43;;;17.20;96.10;;;17.19;86.71;97698.75;4943642;29;20540;-79
2023/08/05 06:23:22;;;;;;;6.63;6.10;;;17.40;95.00;;;17.72;84.13;97689.63;4944990;29;20448;-79
2023/08/05 06:25:50;;;;;;;6.37;5.80;;;17.80;94.40;;;17.91;82.75;97702.78;4951695;28;20465;-80
2023/08/05 06:28:17;;;;;;;6.07;5.47;;;18.10;93.10;;;17.62;81.50;97708.72;4943753;29;20469;-77
2023/08/05 06:30:45;;;;;;;7.07;6.47;;;18.00;91.90;;;17.43;82.33;97703.75;4943578;29;20463;-78
2023/08/05 06:33:13;;;;;;;6.77;5.80;;;17.90;92.20;;;17.45;83.56;97719.88;4935040;28;20473;-78
2023/08/05 06:35:41;;;;;;;5.63;5.00;;;17.80;92.80;;;17.77;83.79;97708.75;4936834;29;20940;-80
2023/08/05 06:38:10;;;;;;;5.70;5.20;;;17.80;93.30;;;17.68;83.09;97707.66;4940085;28;20461;-77
2023/08/05 06:40:37;;;;;;;6.53;6.00;;;17.90;92.80;;;17.53;82.09;97701.06;4954930;28;20787;-80
2023/08/05 06:43:04;;;;;;;6.80;4.60;;;17.90;92.20;;;17.37;82.05;97672.06;4945490;29;20479;-80
2023/08/05 06:45:32;;;;;;;5.67;5.17;;;17.80;92.20;;;17.53;83.10;97700.22;4944418;28;20925;-78
2023/08/05 06:47:59;;;;;;;7.37;5.10;;;17.80;92.60;;;17.46;82.33;97697.75;4941111;28;20466;-78
2023/08/05 06:50:26;;;;;;;5.60;5.10;;;17.80;92.40;;;17.27;83.60;97695.50;4949144;28;20938;-79
2023/08/05 06:52:54;;;;;;;5.93;5.43;;;17.60;92.60;;;17.05;83.51;97673.03;4942358;28;20478;-77
2023/08/05 06:55:22;;;;;;;5.90;5.30;;;17.50;92.70;;;17.06;84.33;97682.84;4945050;28;20492;-76
2023/08/05 06:57:50;;;;;;;5.80;5.30;;;17.40;93.10;;;17.27;84.10;97705.59;4938454;29;20477;-76
2023/08/05 07:00:18;;;;;;;10.30;5.90;;;17.50;93.30;;;17.22;84.31;97709.16;4949251;28;20478;-78
2023/08/05 07:02:45;;;;;;;5.90;5.40;;;17.50;93.20;;;17.52;84.61;97715.81;4944735;29;20455;-78
2023/08/05 07:05:13;;;;;;;5.40;5.00;;;17.70;93.60;;;17.08;82.59;97653.41;4954274;28;20468;-77
2023/08/05 07:07:40;;;;;;;5.67;5.17;;;17.80;92.40;;;17.42;83.05;97696.66;4936913;28;20455;-78
2023/08/05 07:10:11;;;;;;;5.40;5.00;;;17.80;92.80;;;17.80;82.40;97710.94;4937911;29;20468;-80
2023/08/05 07:12:40;;;;;;;4.80;4.50;;;18.00;92.80;;;17.75;80.37;97707.41;4938110;28;20487;-79
2023/08/05 07:15:08;;;;;;;9.23;5.80;;;18.00;91.90;;;17.62;81.56;97695.06;4937176;29;20468;-80
2023/08/05 07:17:36;;;;;;;6.10;5.50;;;17.90;92.30;;;17.54;81.84;97708.16;4935791;28;20894;-79
2023/08/05 07:20:06;;;;;;;6.40;5.80;;;17.90;92.20;;;17.55;82.24;97707.06;4954257;28;20581;-79
2023/08/05 07:22:34;;;;;;;5.97;5.47;;;17.80;92.30;;;17.72;81.66;97706.03;4964258;28;23328;-80
2023/08/05 07:25:02;;;;;;;5.83;5.30;;;17.90;92.40;;;17.54;81.31;97685.50;4957387;28;20462;-79
2023/08/05 07:27:29;;;;;;;5.13;4.80;;;17.90;92.10;;;17.95;80.33;97698.41;4935683;29;20507;-80
2023/08/05 07:29:58;;;;;;;5.90;5.30;;;18.10;92.10;;;17.95;79.56;97698.41;4938538;29;20991;-80
2023/08/05 07:32:25;;;;;;;6.90;5.53;;;18.10;91.70;;;18.09;78.41;97712.41;4942004;29;20481;-80
2023/08/05 07:34:56;;;;;;;5.60;5.00;;;18.30;91.30;;;17.94;78.98;97714.00;4939859;29;20646;-79
2023/08/05 07:37:24;;;;;;;5.53;5.00;;;18.20;91.10;;;17.97;78.91;97720.84;4943671;28;20461;-80
2023/08/05 07:39:52;;;;;;;5.43;4.93;;;18.20;91.10;;;18.20;77.51;97710.47;4942544;29;20559;-79
2023/08/05 07:42:22;;;;;;;5.27;4.87;;;18.30;90.90;;;18.27;76.85;97694.63;4931864;28;20449;-79
2023/08/05 07:44:52;;;;;;;6.47;5.97;;;18.50;90.80;;;18.49;76.08;97674.38;4938706;29;20473;-79
2023/08/05 07:47:20;;;;;;;7.23;5.50;;;18.80;90.60;;;18.81;73.93;97686.91;4942783;29;20954;-79
2023/08/05 07:49:48;;;;;;;5.60;5.20;;;19.00;90.00;;;18.94;72.98;97710.94;4934779;29;20478;-79
2023/08/05 07:52:15;;;;;;;6.20;5.67;;;19.10;89.40;;;18.74;75.03;97719.22;4936113;28;20584;-79
2023/08/05 07:54:42;;;;;;;5.43;5.00;;;19.00;89.70;;;18.90;75.89;97726.28;4958722;28;20463;-79
2023/08/05 07:57:10;;;;;;;5.77;5.20;;;19.10;90.30;;;19.03;72.76;97732.28;4950271;29;20453;-80
2023/08/05 07:59:37;;;;;;;6.37;5.17;;;19.20;89.20;;;19.01;72.98;97718.06;4954137;28;20481;-80
2023/08/05 08:02:10;;;;;;;6.17;5.60;;;19.10;89.00;;;18.79;73.62;97695.38;4958910;29;20481;-79
2023/08/05 08:04:38;;;;;;;5.80;5.20;;;19.00;89.30;;;19.18;72.46;97718.56;4948979;29;20458;-81
2023/08/05 08:07:08;;;;;;;6.17;5.20;;;19.30;88.80;;;18.95;73.51;97682.47;4946334;29;20454;-80
2023/08/05 08:09:35;;;;;;;5.63;5.00;;;19.40;89.10;;;19.53;71.19;97724.16;4938286;29;20935;-78
2023/08/05 08:12:04;;;;;;;5.70;5.20;;;19.60;88.40;;;19.46;69.20;97656.00;4939267;29;20459;-78
2023/08/05 08:14:31;;;;;;;6.20;5.63;;;19.80;87.80;;;19.84;68.50;97720.47;4938632;28;20941;-80
2023/08/05 08:16:59;;;;;;;4.93;4.53;;;20.00;86.50;;;19.95;68.59;97722.06;4942330;29;20514;-79
2023/08/05 08:19:26;;;;;;;6.03;5.23;;;20.10;86.60;;;19.60;69.64;97707.44;4938757;29;20463;-79
2023/08/05 08:21:55;;;;;;;5.67;5.07;;;19.90;86.90;;;19.49;68.86;97723.94;4946526;28;20468;-79
2023/08/05 08:24:22;;;;;;;5.10;4.70;;;19.80;86.00;;;19.72;69.27;97721.63;4933290;29;20478;-78
2023/08/05 08:26:49;;;;;;;4.90;4.50;;;19.80;86.60;;;19.91;68.98;97707.25;4939841;29;20458;-77
2023/08/05 08:29:16;;;;;;;6.40;4.50;;;19.90;86.80;;;20.18;67.55;97708.72;4934639;29;20467;-78
2023/08/05 08:31:43;;;;;;;6.50;5.90;;;20.30;85.90;;;20.29;67.47;97712.22;4941587;29;20457;-80
2023/08/05 08:34:10;;;;;;;5.90;5.33;;;20.40;85.90;;;20.42;65.84;97705.25;4939488;28;20499;-81
2023/08/05 08:36:38;;;;;;;5.63;5.13;;;20.60;85.00;;;20.08;66.63;97702.22;4936217;28;20466;-81
2023/08/05 08:39:06;;;;;;;9.13;4.93;;;20.50;84.80;;;20.03;66.67;97702.25;4933144;29;20454;-81
2023/08/05 08:41:42;;;;;;;5.40;4.90;;;20.30;84.70;;;20.36;67.49;97690.78;4944661;29;20464;-80
2023/08/05 08:44:10;;;;;;;5.63;5.20;;;20.50;85.30;;;20.77;64.85;97684.06;4943074;29;20476;-77
2023/08/05 08:46:38;;;;;;;6.20;5.40;;;20.80;84.60;;;20.86;66.02;97692.50;4937095;29;20504;-76
2023/08/05 08:49:06;;;;;;;6.97;5.10;;;21.00;84.90;;;20.82;64.25;97681.28;4930603;29;20464;-76
2023/08/05 08:51:34;;;;;;;5.47;4.90;;;21.00;83.80;;;20.64;64.57;97675.41;4930991;29;20480;-79
2023/08/05 08:54:04;;;;;;;9.20;4.70;;;20.90;83.70;;;20.94;63.97;97692.69;4931084;29;20577;-75
2023/08/05 08:56:33;;;;;;;6.10;4.43;;;21.00;83.90;;;20.89;64.93;97692.75;4936627;28;20834;-76
2023/08/05 08:59:00;;;;;;;5.50;5.00;;;21.10;84.00;;;21.11;64.03;97694.16;4934594;29;20461;-74
2023/08/05 09:01:28;;;;;;;4.80;4.50;;;21.20;84.00;;;21.17;64.17;97698.47;4942301;28;21113;-75
2023/08/05 09:03:58;;;;;;;5.20;4.80;;;21.30;83.70;;;21.20;63.13;97708.88;4944862;29;21166;-76
2023/08/05 09:06:25;;;;;;;4.93;4.60;;;21.30;83.10;;;21.16;63.56;97701.50;4939353;29;20968;-75
2023/08/05 09:08:53;;;;;;;8.23;4.73;;;21.20;83.40;;;21.04;63.01;97693.69;4939347;29;20458;-75
2023/08/05 09:11:20;;;;;;;5.03;4.60;;;21.10;82.60;;;21.28;62.60;97690.94;4955807;28;20465;-76
2023/08/05 09:13:50;;;;;;;5.30;4.80;;;21.30;82.60;;;21.20;62.20;97692.41;4950363;28;20481;-75
2023/08/05 09:16:17;;;;;;;5.90;5.07;;;21.40;81.90;;;21.17;62.67;97693.00;4949681;28;20544;-76
2023/08/05 09:18:45;;;;;;;4.57;4.17;;;21.30;82.20;;;21.06;62.00;97691.47;4945328;29;20460;-75
2023/08/05 09:21:22;;;;;;;5.87;5.37;;;21.20;81.70;;;21.35;61.29;97698.81;4946335;29;20528;-76
2023/08/05 09:23:51;;;;;;;5.70;4.73;;;21.30;81.70;;;21.81;61.08;97689.13;4944662;29;20481;-76
2023/08/05 09:26:28;;;;;;;5.10;4.70;;;21.50;82.00;;;21.83;60.60;97697.09;4946173;29;20462;-76
2023/08/05 09:28:59;;;;;;;5.27;4.77;;;21.60;81.40;;;21.85;60.22;97681.13;4944019;29;20957;-75
2023/08/05 09:31:26;;;;;;;4.90;4.50;;;21.70;81.50;;;21.97;61.16;97692.50;4945509;28;20459;-75
2023/08/05 09:33:54;;;;;;;4.17;3.77;;;21.70;82.00;;;22.30;59.81;97695.28;4933074;29;20481;-75
2023/08/05 09:36:22;;;;;;;6.03;5.10;;;21.90;81.60;;;22.26;58.68;97693.41;4960233;28;20878;-75
2023/08/05 09:39:05;;;;;;;5.03;4.53;;;22.20;80.50;;;21.69;61.33;97675.84;4938921;29;20935;-75
2023/08/05 09:41:35;;;;;;;4.70;4.37;;;21.70;81.70;;;21.64;62.28;97679.44;4939950;29;20457;-75
2023/08/05 09:44:05;;;;;;;5.10;4.60;;;21.50;82.00;;;21.59;62.54;97684.19;4945367;28;20578;-75
2023/08/05 09:46:40;;;;;;;7.27;4.70;;;21.50;82.30;;;21.84;60.52;97679.50;4946408;29;20450;-75
2023/08/05 09:49:09;;;;;;;4.30;4.00;;;21.50;81.30;;;21.66;60.62;97676.44;4938040;29;20465;-77
2023/08/05 09:51:38;;;;;;;4.80;4.40;;;21.70;81.10;;;21.91;59.50;97682.66;4939185;29;20944;-76
2023/08/05 09:54:08;;;;;;;5.17;4.67;;;21.90;80.50;;;21.52;60.13;97682.66;4946783;28;21131;-75
2023/08/05 09:56:37;;;;;;;5.13;4.20;;;21.90;79.50;;;22.27;58.15;97676.63;4942033;29;20454;-77
2023/08/05 09:59:08;;;;;;;5.60;4.17;;;22.30;79.50;;;22.35;58.27;97675.91;4932923;29;20453;-76
2023/08/05 10:01:36;;;;;;;5.57;5.07;;;22.40;79.50;;;22.85;55.90;97671.78;4939897;28;20466;-76
2023/08/05 10:04:03;;;;;;;4.47;4.17;;;22.80;78.00;;;23.16;56.19;97671.16;4947605;28;20466;-78
2023/08/05 10:06:31;;;;;;;5.37;4.97;;;23.10;78.20;;;23.04;56.21;97668.91;4947121;29;20468;-74
2023/08/05 10:08:59;;;;;;;4.63;4.20;;;23.20;77.90;;;22.74;57.59;97665.63;4943857;28;20473;-77
2023/08/05 10:11:27;;;;;;;5.23;4.83;;;23.00;78.10;;;22.69;57.32;97664.91;4949316;29;20469;-76
2023/08/05 10:13:55;;;;;;;6.10;4.70;;;22.90;78.10;;;22.25;59.08;97658.75;4938220;28;20474;-76